Northglenn, Colorado
Current Conditions -  °F | °C
As of 7:48 PM on Saturday 25 Oct 2014 (Local Time) from KBJC Reporting Station
Clear Clear  
Wind Chill: 20°   Ceiling: Unl
Heat Index: 20°   Visibility: 30mi
Dew Point: -6°   Wind: 3mph
Humidity: 17%   Direction: 320°NW
Pressure: 30.07"   Gusts: NA
Location:  39.91°N, 104.98°W
Report Text: KBJC 260148Z 32003KT 30SM SKC 20/M06 A3007
Loading
Personal Weather Stations






























Interactive Weather Map
Tropical Storm Tracking
New forecast layout! Learn more

10-Day Weather Forecast

Advertisements
Track Severe Weather on mobile